sensor_id;sensor_type;location;lat;lon;timestamp;temperature;humidity
46758;DHT22;32509;47.750;-3.396;2024-03-17T00:01:37;12.90;99.90
46758;DHT22;32509;47.750;-3.396;2024-03-17T00:04:03;12.90;99.90
46758;DHT22;32509;47.750;-3.396;2024-03-17T00:06:31;12.90;99.90
46758;DHT22;32509;47.750;-3.396;2024-03-17T00:08:56;12.90;99.90
46758;DHT22;32509;47.750;-3.396;2024-03-17T00:11:23;12.90;99.90
46758;DHT22;32509;47.750;-3.396;2024-03-17T00:13:48;12.90;99.90
46758;DHT22;32509;47.750;-3.396;2024-03-17T00:16:14;12.90;99.90
46758;DHT22;32509;47.750;-3.396;2024-03-17T00:18:44;12.90;99.90
46758;DHT22;32509;47.750;-3.396;2024-03-17T00:21:12;12.90;99.90
46758;DHT22;32509;47.750;-3.396;2024-03-17T00:23:39;12.80;99.90
46758;DHT22;32509;47.750;-3.396;2024-03-17T00:26:04;12.80;99.90
46758;DHT22;32509;47.750;-3.396;2024-03-17T00:28:30;12.90;99.90
46758;DHT22;32509;47.750;-3.396;2024-03-17T00:30:56;12.90;99.90
46758;DHT22;32509;47.750;-3.396;2024-03-17T00:33:22;12.80;99.90
46758;DHT22;32509;47.750;-3.396;2024-03-17T00:35:47;12.80;99.90
46758;DHT22;32509;47.750;-3.396;2024-03-17T00:38:13;12.80;99.90
46758;DHT22;32509;47.750;-3.396;2024-03-17T00:40:39;12.80;99.90
46758;DHT22;32509;47.750;-3.396;2024-03-17T00:43:10;12.80;99.90
46758;DHT22;32509;47.750;-3.396;2024-03-17T00:45:37;12.80;99.90
46758;DHT22;32509;47.750;-3.396;2024-03-17T00:48:03;12.80;99.90
46758;DHT22;32509;47.750;-3.396;2024-03-17T00:50:30;12.80;99.90
46758;DHT22;32509;47.750;-3.396;2024-03-17T00:52:56;12.80;99.90
46758;DHT22;32509;47.750;-3.396;2024-03-17T00:55:22;12.80;99.90
46758;DHT22;32509;47.750;-3.396;2024-03-17T00:57:48;12.80;99.90
46758;DHT22;32509;47.750;-3.396;2024-03-17T01:00:14;12.80;99.90
46758;DHT22;32509;47.750;-3.396;2024-03-17T01:02:41;12.80;99.90
46758;DHT22;32509;47.750;-3.396;2024-03-17T01:05:07;12.80;99.90
46758;DHT22;32509;47.750;-3.396;2024-03-17T01:07:33;12.80;99.90
46758;DHT22;32509;47.750;-3.396;2024-03-17T01:09:59;12.80;99.90
46758;DHT22;32509;47.750;-3.396;2024-03-17T01:12:26;12.80;99.90
46758;DHT22;32509;47.750;-3.396;2024-03-17T01:14:52;12.80;99.90
46758;DHT22;32509;47.750;-3.396;2024-03-17T01:17:17;12.80;99.90
46758;DHT22;32509;47.750;-3.396;2024-03-17T01:19:45;12.80;99.90
46758;DHT22;32509;47.750;-3.396;2024-03-17T01:22:10;12.80;99.90
46758;DHT22;32509;47.750;-3.396;2024-03-17T01:24:37;12.80;99.90
46758;DHT22;32509;47.750;-3.396;2024-03-17T01:27:05;12.80;99.90
46758;DHT22;32509;47.750;-3.396;2024-03-17T01:29:32;12.80;99.90
46758;DHT22;32509;47.750;-3.396;2024-03-17T01:31:57;12.80;99.90
46758;DHT22;32509;47.750;-3.396;2024-03-17T01:34:23;12.80;99.90
46758;DHT22;32509;47.750;-3.396;2024-03-17T01:36:49;12.80;99.90
46758;DHT22;32509;47.750;-3.396;2024-03-17T01:39:15;12.80;99.90
46758;DHT22;32509;47.750;-3.396;2024-03-17T01:41:42;12.80;99.90
46758;DHT22;32509;47.750;-3.396;2024-03-17T01:44:08;12.80;99.90
46758;DHT22;32509;47.750;-3.396;2024-03-17T01:46:47;12.80;99.90
46758;DHT22;32509;47.750;-3.396;2024-03-17T01:49:12;12.70;99.90
46758;DHT22;32509;47.750;-3.396;2024-03-17T01:51:38;12.70;99.90
46758;DHT22;32509;47.750;-3.396;2024-03-17T01:54:05;12.70;99.90
46758;DHT22;32509;47.750;-3.396;2024-03-17T01:56:31;12.80;99.90
46758;DHT22;32509;47.750;-3.396;2024-03-17T01:58:57;12.80;99.90
46758;DHT22;32509;47.750;-3.396;2024-03-17T02:01:23;12.80;99.90
46758;DHT22;32509;47.750;-3.396;2024-03-17T02:03:49;12.80;99.90
46758;DHT22;32509;47.750;-3.396;2024-03-17T02:06:15;12.80;99.90
46758;DHT22;32509;47.750;-3.396;2024-03-17T02:08:52;12.80;99.90
46758;DHT22;32509;47.750;-3.396;2024-03-17T02:11:30;12.80;99.90
46758;DHT22;32509;47.750;-3.396;2024-03-17T02:13:57;12.80;99.90
46758;DHT22;32509;47.750;-3.396;2024-03-17T02:16:23;12.80;99.90
46758;DHT22;32509;47.750;-3.396;2024-03-17T02:18:54;12.80;99.90
46758;DHT22;32509;47.750;-3.396;2024-03-17T02:21:20;12.80;99.90
46758;DHT22;32509;47.750;-3.396;2024-03-17T02:23:48;12.80;99.90
46758;DHT22;32509;47.750;-3.396;2024-03-17T02:26:14;12.80;99.90
46758;DHT22;32509;47.750;-3.396;2024-03-17T02:28:44;12.80;99.90
46758;DHT22;32509;47.750;-3.396;2024-03-17T02:31:14;12.80;99.90
46758;DHT22;32509;47.750;-3.396;2024-03-17T02:33:41;12.80;99.90
46758;DHT22;32509;47.750;-3.396;2024-03-17T02:36:07;12.80;99.90
46758;DHT22;32509;47.750;-3.396;2024-03-17T02:38:35;12.80;99.90
46758;DHT22;32509;47.750;-3.396;2024-03-17T02:41:20;12.80;99.90
46758;DHT22;32509;47.750;-3.396;2024-03-17T02:43:47;12.80;99.90
46758;DHT22;32509;47.750;-3.396;2024-03-17T02:46:14;12.80;99.90
46758;DHT22;32509;47.750;-3.396;2024-03-17T02:48:40;12.80;99.90
46758;DHT22;32509;47.750;-3.396;2024-03-17T02:51:16;12.80;99.90
46758;DHT22;32509;47.750;-3.396;2024-03-17T02:53:47;12.80;99.90
46758;DHT22;32509;47.750;-3.396;2024-03-17T02:56:14;12.80;99.90
46758;DHT22;32509;47.750;-3.396;2024-03-17T02:58:43;12.80;99.90
46758;DHT22;32509;47.750;-3.396;2024-03-17T03:01:09;12.80;99.90
46758;DHT22;32509;47.750;-3.396;2024-03-17T03:03:36;12.90;99.90
46758;DHT22;32509;47.750;-3.396;2024-03-17T03:06:02;12.90;99.90
46758;DHT22;32509;47.750;-3.396;2024-03-17T03:08:35;12.90;99.90
46758;DHT22;32509;47.750;-3.396;2024-03-17T03:11:05;12.80;99.90
46758;DHT22;32509;47.750;-3.396;2024-03-17T03:13:31;12.80;99.90
46758;DHT22;32509;47.750;-3.396;2024-03-17T03:15:57;12.90;99.90
46758;DHT22;32509;47.750;-3.396;2024-03-17T03:18:23;12.80;99.90
46758;DHT22;32509;47.750;-3.396;2024-03-17T03:20:52;12.80;99.90
46758;DHT22;32509;47.750;-3.396;2024-03-17T03:23:18;12.80;99.90
46758;DHT22;32509;47.750;-3.396;2024-03-17T03:25:45;12.80;99.90
46758;DHT22;32509;47.750;-3.396;2024-03-17T03:28:12;12.80;99.90
46758;DHT22;32509;47.750;-3.396;2024-03-17T03:30:38;12.80;99.90
46758;DHT22;32509;47.750;-3.396;2024-03-17T03:33:04;12.80;99.90
46758;DHT22;32509;47.750;-3.396;2024-03-17T03:35:31;12.80;99.90
46758;DHT22;32509;47.750;-3.396;2024-03-17T03:37:57;12.90;99.90
46758;DHT22;32509;47.750;-3.396;2024-03-17T03:40:22;12.90;99.90
46758;DHT22;32509;47.750;-3.396;2024-03-17T03:42:48;12.80;99.90
46758;DHT22;32509;47.750;-3.396;2024-03-17T03:45:14;12.80;99.90
46758;DHT22;32509;47.750;-3.396;2024-03-17T03:47:41;12.90;99.90
46758;DHT22;32509;47.750;-3.396;2024-03-17T03:50:08;12.80;99.90
46758;DHT22;32509;47.750;-3.396;2024-03-17T03:52:37;12.90;99.90
46758;DHT22;32509;47.750;-3.396;2024-03-17T03:55:04;12.90;99.90
46758;DHT22;32509;47.750;-3.396;2024-03-17T03:57:33;12.80;99.90
46758;DHT22;32509;47.750;-3.396;2024-03-17T04:00:05;12.90;99.90
46758;DHT22;32509;47.750;-3.396;2024-03-17T04:02:40;12.90;99.90
46758;DHT22;32509;47.750;-3.396;2024-03-17T04:05:07;12.80;99.90
46758;DHT22;32509;47.750;-3.396;2024-03-17T04:07:33;12.80;99.90
46758;DHT22;32509;47.750;-3.396;2024-03-17T04:10:00;12.80;99.90
46758;DHT22;32509;47.750;-3.396;2024-03-17T04:12:28;12.90;99.90
46758;DHT22;32509;47.750;-3.396;2024-03-17T04:14:57;12.90;99.90
46758;DHT22;32509;47.750;-3.396;2024-03-17T04:17:22;12.90;99.90
46758;DHT22;32509;47.750;-3.396;2024-03-17T04:19:52;12.90;99.90
46758;DHT22;32509;47.750;-3.396;2024-03-17T04:22:19;12.90;99.90
46758;DHT22;32509;47.750;-3.396;2024-03-17T04:24:46;12.90;99.90
46758;DHT22;32509;47.750;-3.396;2024-03-17T04:27:12;12.80;99.90
46758;DHT22;32509;47.750;-3.396;2024-03-17T04:29:39;12.90;99.90
46758;DHT22;32509;47.750;-3.396;2024-03-17T04:32:06;12.90;99.90
46758;DHT22;32509;47.750;-3.396;2024-03-17T04:34:32;12.90;99.90
46758;DHT22;32509;47.750;-3.396;2024-03-17T04:36:58;12.90;99.90
46758;DHT22;32509;47.750;-3.396;2024-03-17T04:39:24;12.90;99.90
46758;DHT22;32509;47.750;-3.396;2024-03-17T04:41:50;12.90;99.90
46758;DHT22;32509;47.750;-3.396;2024-03-17T04:44:17;12.90;99.90
46758;DHT22;32509;47.750;-3.396;2024-03-17T04:46:43;12.90;99.90
46758;DHT22;32509;47.750;-3.396;2024-03-17T04:49:09;12.90;99.90
46758;DHT22;32509;47.750;-3.396;2024-03-17T04:51:35;12.90;99.90
46758;DHT22;32509;47.750;-3.396;2024-03-17T04:54:01;12.90;99.90
46758;DHT22;32509;47.750;-3.396;2024-03-17T04:56:31;12.90;99.90
46758;DHT22;32509;47.750;-3.396;2024-03-17T04:58:57;13.00;99.90
46758;DHT22;32509;47.750;-3.396;2024-03-17T05:01:22;12.90;99.90
46758;DHT22;32509;47.750;-3.396;2024-03-17T05:03:51;12.90;99.90
46758;DHT22;32509;47.750;-3.396;2024-03-17T05:06:17;13.00;99.90
46758;DHT22;32509;47.750;-3.396;2024-03-17T05:08:42;13.00;99.90
46758;DHT22;32509;47.750;-3.396;2024-03-17T05:11:09;13.00;99.90
46758;DHT22;32509;47.750;-3.396;2024-03-17T05:13:36;12.90;99.90
46758;DHT22;32509;47.750;-3.396;2024-03-17T05:16:04;12.90;99.90
46758;DHT22;32509;47.750;-3.396;2024-03-17T05:18:30;12.90;99.90
46758;DHT22;32509;47.750;-3.396;2024-03-17T05:21:03;12.90;99.90
46758;DHT22;32509;47.750;-3.396;2024-03-17T05:23:34;13.00;99.90
46758;DHT22;32509;47.750;-3.396;2024-03-17T05:26:00;13.00;99.90
46758;DHT22;32509;47.750;-3.396;2024-03-17T05:28:28;13.00;99.90
46758;DHT22;32509;47.750;-3.396;2024-03-17T05:30:54;12.90;99.90
46758;DHT22;32509;47.750;-3.396;2024-03-17T05:33:21;13.00;99.90
46758;DHT22;32509;47.750;-3.396;2024-03-17T05:38:22;13.00;99.90
46758;DHT22;32509;47.750;-3.396;2024-03-17T05:41:10;13.00;99.90
46758;DHT22;32509;47.750;-3.396;2024-03-17T05:43:37;13.00;99.90
46758;DHT22;32509;47.750;-3.396;2024-03-17T05:46:08;13.00;99.90
46758;DHT22;32509;47.750;-3.396;2024-03-17T05:48:35;13.00;99.90
46758;DHT22;32509;47.750;-3.396;2024-03-17T05:51:07;13.00;99.90
46758;DHT22;32509;47.750;-3.396;2024-03-17T05:53:33;13.00;99.90
46758;DHT22;32509;47.750;-3.396;2024-03-17T05:56:00;13.00;99.90
46758;DHT22;32509;47.750;-3.396;2024-03-17T05:58:26;13.00;99.90
46758;DHT22;32509;47.750;-3.396;2024-03-17T06:00:52;13.00;99.90
46758;DHT22;32509;47.750;-3.396;2024-03-17T06:03:17;13.00;99.90
46758;DHT22;32509;47.750;-3.396;2024-03-17T06:05:44;13.00;99.90
46758;DHT22;32509;47.750;-3.396;2024-03-17T06:08:12;13.00;99.90
46758;DHT22;32509;47.750;-3.396;2024-03-17T06:10:43;13.00;99.90
46758;DHT22;32509;47.750;-3.396;2024-03-17T06:13:09;13.00;99.90
46758;DHT22;32509;47.750;-3.396;2024-03-17T06:15:39;13.00;99.90
46758;DHT22;32509;47.750;-3.396;2024-03-17T06:18:05;13.00;99.90
46758;DHT22;32509;47.750;-3.396;2024-03-17T06:20:34;13.00;99.90
46758;DHT22;32509;47.750;-3.396;2024-03-17T06:23:00;13.00;99.90
46758;DHT22;32509;47.750;-3.396;2024-03-17T06:25:26;13.00;99.90
46758;DHT22;32509;47.750;-3.396;2024-03-17T06:27:53;13.00;99.90
46758;DHT22;32509;47.750;-3.396;2024-03-17T06:30:20;13.00;99.90
46758;DHT22;32509;47.750;-3.396;2024-03-17T06:32:47;13.00;99.90
46758;DHT22;32509;47.750;-3.396;2024-03-17T06:35:13;13.00;99.90
46758;DHT22;32509;47.750;-3.396;2024-03-17T06:37:41;13.00;99.90
46758;DHT22;32509;47.750;-3.396;2024-03-17T06:40:13;13.00;99.90
46758;DHT22;32509;47.750;-3.396;2024-03-17T06:42:39;13.00;99.90
46758;DHT22;32509;47.750;-3.396;2024-03-17T06:45:05;13.00;99.90
46758;DHT22;32509;47.750;-3.396;2024-03-17T06:47:31;13.00;99.90
46758;DHT22;32509;47.750;-3.396;2024-03-17T06:49:57;13.00;99.90
46758;DHT22;32509;47.750;-3.396;2024-03-17T06:52:22;13.00;99.90
46758;DHT22;32509;47.750;-3.396;2024-03-17T06:54:49;13.00;99.90
46758;DHT22;32509;47.750;-3.396;2024-03-17T06:57:15;13.00;99.90
46758;DHT22;32509;47.750;-3.396;2024-03-17T06:59:41;13.00;99.90
46758;DHT22;32509;47.750;-3.396;2024-03-17T07:02:07;13.10;99.90
46758;DHT22;32509;47.750;-3.396;2024-03-17T07:04:36;13.00;99.90
46758;DHT22;32509;47.750;-3.396;2024-03-17T07:07:01;13.00;99.90
46758;DHT22;32509;47.750;-3.396;2024-03-17T07:09:27;13.00;99.90
46758;DHT22;32509;47.750;-3.396;2024-03-17T07:11:53;13.10;99.90
46758;DHT22;32509;47.750;-3.396;2024-03-17T07:14:19;13.00;99.90
46758;DHT22;32509;47.750;-3.396;2024-03-17T07:16:44;13.10;99.90
46758;DHT22;32509;47.750;-3.396;2024-03-17T07:19:10;13.10;99.90
46758;DHT22;32509;47.750;-3.396;2024-03-17T07:21:36;13.00;99.90
46758;DHT22;32509;47.750;-3.396;2024-03-17T07:24:02;13.00;99.90
46758;DHT22;32509;47.750;-3.396;2024-03-17T07:26:30;13.10;99.90
46758;DHT22;32509;47.750;-3.396;2024-03-17T07:28:56;13.10;99.90
46758;DHT22;32509;47.750;-3.396;2024-03-17T07:31:22;13.10;99.90
46758;DHT22;32509;47.750;-3.396;2024-03-17T07:33:48;13.10;99.90
46758;DHT22;32509;47.750;-3.396;2024-03-17T07:36:14;13.10;99.90
46758;DHT22;32509;47.750;-3.396;2024-03-17T07:38:40;13.10;99.90
46758;DHT22;32509;47.750;-3.396;2024-03-17T07:41:07;13.10;99.90
46758;DHT22;32509;47.750;-3.396;2024-03-17T07:43:35;13.20;99.90
46758;DHT22;32509;47.750;-3.396;2024-03-17T07:46:02;13.20;99.90
46758;DHT22;32509;47.750;-3.396;2024-03-17T07:48:29;13.20;99.90
46758;DHT22;32509;47.750;-3.396;2024-03-17T07:51:02;13.20;99.90
46758;DHT22;32509;47.750;-3.396;2024-03-17T07:53:32;13.20;99.90
46758;DHT22;32509;47.750;-3.396;2024-03-17T07:56:00;13.20;99.90
46758;DHT22;32509;47.750;-3.396;2024-03-17T07:58:26;13.20;99.90
46758;DHT22;32509;47.750;-3.396;2024-03-17T08:00:59;13.20;99.90
46758;DHT22;32509;47.750;-3.396;2024-03-17T08:03:25;13.20;99.90
46758;DHT22;32509;47.750;-3.396;2024-03-17T08:05:52;13.30;99.90
46758;DHT22;32509;47.750;-3.396;2024-03-17T08:08:18;13.20;99.90
46758;DHT22;32509;47.750;-3.396;2024-03-17T08:10:44;13.20;99.90
46758;DHT22;32509;47.750;-3.396;2024-03-17T08:13:11;13.30;99.90
46758;DHT22;32509;47.750;-3.396;2024-03-17T08:15:44;13.30;99.90
46758;DHT22;32509;47.750;-3.396;2024-03-17T08:18:11;13.20;99.90
46758;DHT22;32509;47.750;-3.396;2024-03-17T08:20:41;13.30;99.90
46758;DHT22;32509;47.750;-3.396;2024-03-17T08:23:09;13.30;99.90
46758;DHT22;32509;47.750;-3.396;2024-03-17T08:25:36;13.30;99.90
46758;DHT22;32509;47.750;-3.396;2024-03-17T08:28:02;13.30;99.90
46758;DHT22;32509;47.750;-3.396;2024-03-17T08:30:28;13.30;99.90
46758;DHT22;32509;47.750;-3.396;2024-03-17T08:32:56;13.30;99.90
46758;DHT22;32509;47.750;-3.396;2024-03-17T08:35:22;13.40;99.90
46758;DHT22;32509;47.750;-3.396;2024-03-17T08:37:48;13.40;99.90
46758;DHT22;32509;47.750;-3.396;2024-03-17T08:40:13;13.40;99.90
46758;DHT22;32509;47.750;-3.396;2024-03-17T08:42:40;13.50;99.90
46758;DHT22;32509;47.750;-3.396;2024-03-17T08:45:06;13.50;99.90
46758;DHT22;32509;47.750;-3.396;2024-03-17T08:47:32;13.50;99.90
46758;DHT22;32509;47.750;-3.396;2024-03-17T08:49:58;13.50;99.90
46758;DHT22;32509;47.750;-3.396;2024-03-17T08:52:32;13.50;99.90
46758;DHT22;32509;47.750;-3.396;2024-03-17T08:54:58;13.60;99.90
46758;DHT22;32509;47.750;-3.396;2024-03-17T08:57:26;13.60;99.90
46758;DHT22;32509;47.750;-3.396;2024-03-17T08:59:52;13.60;99.90
46758;DHT22;32509;47.750;-3.396;2024-03-17T09:02:18;13.60;99.90
46758;DHT22;32509;47.750;-3.396;2024-03-17T09:04:46;13.60;99.90
46758;DHT22;32509;47.750;-3.396;2024-03-17T09:07:12;13.60;99.90
46758;DHT22;32509;47.750;-3.396;2024-03-17T09:09:41;13.60;99.90
46758;DHT22;32509;47.750;-3.396;2024-03-17T09:12:08;13.60;99.90
46758;DHT22;32509;47.750;-3.396;2024-03-17T09:14:33;13.60;99.90
46758;DHT22;32509;47.750;-3.396;2024-03-17T09:16:59;13.60;99.90
46758;DHT22;32509;47.750;-3.396;2024-03-17T09:19:28;13.60;99.90
46758;DHT22;32509;47.750;-3.396;2024-03-17T09:21:58;13.60;99.90
46758;DHT22;32509;47.750;-3.396;2024-03-17T09:24:24;13.60;99.90
46758;DHT22;32509;47.750;-3.396;2024-03-17T09:26:50;13.60;99.90
46758;DHT22;32509;47.750;-3.396;2024-03-17T09:29:17;13.60;99.90
46758;DHT22;32509;47.750;-3.396;2024-03-17T09:31:43;13.60;99.90
46758;DHT22;32509;47.750;-3.396;2024-03-17T09:34:09;13.60;99.90
46758;DHT22;32509;47.750;-3.396;2024-03-17T09:36:35;13.60;99.90
46758;DHT22;32509;47.750;-3.396;2024-03-17T09:39:01;13.50;99.90
46758;DHT22;32509;47.750;-3.396;2024-03-17T09:41:29;13.60;99.90
46758;DHT22;32509;47.750;-3.396;2024-03-17T09:43:59;13.60;99.90
46758;DHT22;32509;47.750;-3.396;2024-03-17T09:46:26;13.70;99.90
46758;DHT22;32509;47.750;-3.396;2024-03-17T09:48:55;13.60;99.90
46758;DHT22;32509;47.750;-3.396;2024-03-17T09:51:24;13.60;99.90
46758;DHT22;32509;47.750;-3.396;2024-03-17T09:53:51;13.60;99.90
46758;DHT22;32509;47.750;-3.396;2024-03-17T09:56:19;13.70;99.90
46758;DHT22;32509;47.750;-3.396;2024-03-17T09:58:49;13.70;99.90
46758;DHT22;32509;47.750;-3.396;2024-03-17T10:01:16;13.70;99.90
46758;DHT22;32509;47.750;-3.396;2024-03-17T10:03:48;13.70;99.90
46758;DHT22;32509;47.750;-3.396;2024-03-17T10:06:19;13.70;99.90
46758;DHT22;32509;47.750;-3.396;2024-03-17T10:09:01;13.70;99.90
46758;DHT22;32509;47.750;-3.396;2024-03-17T10:11:35;13.70;99.90
46758;DHT22;32509;47.750;-3.396;2024-03-17T10:14:06;13.70;99.90
46758;DHT22;32509;47.750;-3.396;2024-03-17T10:16:36;13.70;99.90
46758;DHT22;32509;47.750;-3.396;2024-03-17T10:19:21;13.80;99.90
46758;DHT22;32509;47.750;-3.396;2024-03-17T10:21:47;13.80;99.90
46758;DHT22;32509;47.750;-3.396;2024-03-17T10:24:24;13.80;99.90
46758;DHT22;32509;47.750;-3.396;2024-03-17T10:26:51;13.80;99.90
46758;DHT22;32509;47.750;-3.396;2024-03-17T10:32:04;13.90;99.90
46758;DHT22;32509;47.750;-3.396;2024-03-17T10:34:31;13.90;99.90
46758;DHT22;32509;47.750;-3.396;2024-03-17T10:37:15;13.90;99.90
46758;DHT22;32509;47.750;-3.396;2024-03-17T10:39:43;13.80;99.90
46758;DHT22;32509;47.750;-3.396;2024-03-17T10:42:11;13.90;99.90
46758;DHT22;32509;47.750;-3.396;2024-03-17T10:44:39;14.00;99.90
46758;DHT22;32509;47.750;-3.396;2024-03-17T10:47:07;14.00;99.90
46758;DHT22;32509;47.750;-3.396;2024-03-17T10:49:37;13.90;99.90
46758;DHT22;32509;47.750;-3.396;2024-03-17T10:52:16;14.00;99.90
46758;DHT22;32509;47.750;-3.396;2024-03-17T10:54:50;14.10;99.90
46758;DHT22;32509;47.750;-3.396;2024-03-17T11:00:05;14.20;99.90
46758;DHT22;32509;47.750;-3.396;2024-03-17T11:02:34;14.10;99.90
46758;DHT22;32509;47.750;-3.396;2024-03-17T11:05:05;14.10;99.90
46758;DHT22;32509;47.750;-3.396;2024-03-17T11:07:34;14.10;99.90
46758;DHT22;32509;47.750;-3.396;2024-03-17T11:10:03;14.10;99.90
46758;DHT22;32509;47.750;-3.396;2024-03-17T11:12:53;14.10;99.90
46758;DHT22;32509;47.750;-3.396;2024-03-17T11:20:41;14.00;99.90
46758;DHT22;32509;47.750;-3.396;2024-03-17T11:23:07;14.00;99.90
46758;DHT22;32509;47.750;-3.396;2024-03-17T11:25:38;13.90;99.90
46758;DHT22;32509;47.750;-3.396;2024-03-17T11:28:05;14.00;99.90
46758;DHT22;32509;47.750;-3.396;2024-03-17T11:30:49;14.00;99.90
46758;DHT22;32509;47.750;-3.396;2024-03-17T11:39:00;14.00;99.90
46758;DHT22;32509;47.750;-3.396;2024-03-17T11:41:45;14.10;99.90
46758;DHT22;32509;47.750;-3.396;2024-03-17T11:46:54;14.10;99.90
46758;DHT22;32509;47.750;-3.396;2024-03-17T11:49:23;14.10;99.90
46758;DHT22;32509;47.750;-3.396;2024-03-17T11:51:58;14.10;99.90
46758;DHT22;32509;47.750;-3.396;2024-03-17T11:54:29;14.00;99.90
46758;DHT22;32509;47.750;-3.396;2024-03-17T11:56:56;14.10;99.90
46758;DHT22;32509;47.750;-3.396;2024-03-17T11:59:25;14.10;99.90
46758;DHT22;32509;47.750;-3.396;2024-03-17T12:01:52;14.20;99.90
46758;DHT22;32509;47.750;-3.396;2024-03-17T12:04:20;14.20;99.90
46758;DHT22;32509;47.750;-3.396;2024-03-17T12:06:50;14.10;99.90
46758;DHT22;32509;47.750;-3.396;2024-03-17T12:09:24;14.10;99.90
46758;DHT22;32509;47.750;-3.396;2024-03-17T12:12:10;14.20;99.90
46758;DHT22;32509;47.750;-3.396;2024-03-17T12:14:37;14.20;99.90
46758;DHT22;32509;47.750;-3.396;2024-03-17T12:17:11;14.20;99.90
46758;DHT22;32509;47.750;-3.396;2024-03-17T12:19:37;14.20;99.90
46758;DHT22;32509;47.750;-3.396;2024-03-17T12:22:05;14.20;99.90
46758;DHT22;32509;47.750;-3.396;2024-03-17T12:24:32;14.20;99.90
46758;DHT22;32509;47.750;-3.396;2024-03-17T12:26:59;14.20;99.90
46758;DHT22;32509;47.750;-3.396;2024-03-17T12:29:29;14.30;99.90
46758;DHT22;32509;47.750;-3.396;2024-03-17T12:32:00;14.30;99.90
46758;DHT22;32509;47.750;-3.396;2024-03-17T12:34:28;14.20;99.90
46758;DHT22;32509;47.750;-3.396;2024-03-17T12:36:55;14.20;99.90
46758;DHT22;32509;47.750;-3.396;2024-03-17T12:39:26;14.30;99.90
46758;DHT22;32509;47.750;-3.396;2024-03-17T12:42:08;14.30;99.90
46758;DHT22;32509;47.750;-3.396;2024-03-17T12:47:15;14.40;99.90
46758;DHT22;32509;47.750;-3.396;2024-03-17T12:49:54;14.50;99.90
46758;DHT22;32509;47.750;-3.396;2024-03-17T12:52:31;14.50;99.90
46758;DHT22;32509;47.750;-3.396;2024-03-17T12:55:09;14.50;99.90
46758;DHT22;32509;47.750;-3.396;2024-03-17T13:00:56;14.30;99.90
46758;DHT22;32509;47.750;-3.396;2024-03-17T13:03:27;14.40;99.90
46758;DHT22;32509;47.750;-3.396;2024-03-17T13:05:54;14.30;99.90
46758;DHT22;32509;47.750;-3.396;2024-03-17T13:08:20;14.20;99.90
46758;DHT22;32509;47.750;-3.396;2024-03-17T13:10:46;14.20;99.90
46758;DHT22;32509;47.750;-3.396;2024-03-17T13:13:13;14.30;99.90
46758;DHT22;32509;47.750;-3.396;2024-03-17T13:15:42;14.40;99.90
46758;DHT22;32509;47.750;-3.396;2024-03-17T13:18:09;14.50;99.90
46758;DHT22;32509;47.750;-3.396;2024-03-17T13:20:35;14.60;99.90
46758;DHT22;32509;47.750;-3.396;2024-03-17T13:23:01;14.70;99.90
46758;DHT22;32509;47.750;-3.396;2024-03-17T13:25:28;14.70;99.90
46758;DHT22;32509;47.750;-3.396;2024-03-17T13:28:03;14.70;99.90
46758;DHT22;32509;47.750;-3.396;2024-03-17T13:30:30;14.60;99.90
46758;DHT22;32509;47.750;-3.396;2024-03-17T13:32:56;14.50;99.90
46758;DHT22;32509;47.750;-3.396;2024-03-17T13:35:29;14.60;99.90
46758;DHT22;32509;47.750;-3.396;2024-03-17T13:37:56;14.70;99.90
46758;DHT22;32509;47.750;-3.396;2024-03-17T13:40:26;14.70;99.90
46758;DHT22;32509;47.750;-3.396;2024-03-17T13:42:53;14.80;99.90
46758;DHT22;32509;47.750;-3.396;2024-03-17T13:45:20;14.70;99.90
46758;DHT22;32509;47.750;-3.396;2024-03-17T13:47:53;14.70;99.90
46758;DHT22;32509;47.750;-3.396;2024-03-17T13:50:20;14.70;99.90
46758;DHT22;32509;47.750;-3.396;2024-03-17T13:52:46;14.60;99.90
46758;DHT22;32509;47.750;-3.396;2024-03-17T13:55:18;14.60;99.90
46758;DHT22;32509;47.750;-3.396;2024-03-17T13:57:50;14.70;99.90
46758;DHT22;32509;47.750;-3.396;2024-03-17T14:00:26;14.70;99.90
46758;DHT22;32509;47.750;-3.396;2024-03-17T14:02:53;14.60;99.90
46758;DHT22;32509;47.750;-3.396;2024-03-17T14:05:21;14.70;99.90
46758;DHT22;32509;47.750;-3.396;2024-03-17T14:07:47;14.70;99.90
46758;DHT22;32509;47.750;-3.396;2024-03-17T14:10:18;14.70;99.90
46758;DHT22;32509;47.750;-3.396;2024-03-17T14:12:44;14.70;99.90
46758;DHT22;32509;47.750;-3.396;2024-03-17T14:15:12;14.70;99.90
46758;DHT22;32509;47.750;-3.396;2024-03-17T14:17:45;14.70;99.90
46758;DHT22;32509;47.750;-3.396;2024-03-17T14:20:11;14.80;99.90
46758;DHT22;32509;47.750;-3.396;2024-03-17T14:22:43;14.80;99.90
46758;DHT22;32509;47.750;-3.396;2024-03-17T14:25:18;14.70;99.90
46758;DHT22;32509;47.750;-3.396;2024-03-17T14:27:44;14.70;99.90
46758;DHT22;32509;47.750;-3.396;2024-03-17T14:30:14;14.70;99.90
46758;DHT22;32509;47.750;-3.396;2024-03-17T14:32:40;14.70;99.90
46758;DHT22;32509;47.750;-3.396;2024-03-17T14:35:07;14.80;99.90
46758;DHT22;32509;47.750;-3.396;2024-03-17T14:37:36;14.80;99.90
46758;DHT22;32509;47.750;-3.396;2024-03-17T14:40:02;14.80;99.90
46758;DHT22;32509;47.750;-3.396;2024-03-17T14:42:32;14.80;99.90
46758;DHT22;32509;47.750;-3.396;2024-03-17T14:44:57;14.80;99.90
46758;DHT22;32509;47.750;-3.396;2024-03-17T14:47:23;14.80;99.90
46758;DHT22;32509;47.750;-3.396;2024-03-17T14:49:49;14.70;99.90
46758;DHT22;32509;47.750;-3.396;2024-03-17T14:52:16;14.70;99.90
46758;DHT22;32509;47.750;-3.396;2024-03-17T14:54:42;14.70;99.90
46758;DHT22;32509;47.750;-3.396;2024-03-17T14:57:08;14.60;99.90
46758;DHT22;32509;47.750;-3.396;2024-03-17T14:59:34;14.60;99.90
46758;DHT22;32509;47.750;-3.396;2024-03-17T15:02:00;14.60;99.90
46758;DHT22;32509;47.750;-3.396;2024-03-17T15:04:26;14.60;99.90
46758;DHT22;32509;47.750;-3.396;2024-03-17T15:06:52;14.50;99.90
46758;DHT22;32509;47.750;-3.396;2024-03-17T15:09:19;14.50;99.90
46758;DHT22;32509;47.750;-3.396;2024-03-17T15:11:47;14.50;99.90
46758;DHT22;32509;47.750;-3.396;2024-03-17T15:14:12;14.50;99.90
46758;DHT22;32509;47.750;-3.396;2024-03-17T15:16:38;14.50;99.90
46758;DHT22;32509;47.750;-3.396;2024-03-17T15:19:07;14.40;99.90
46758;DHT22;32509;47.750;-3.396;2024-03-17T15:21:33;14.40;99.90
46758;DHT22;32509;47.750;-3.396;2024-03-17T15:24:00;14.40;99.90
46758;DHT22;32509;47.750;-3.396;2024-03-17T15:26:28;14.40;99.90
46758;DHT22;32509;47.750;-3.396;2024-03-17T15:28:54;14.40;99.90
46758;DHT22;32509;47.750;-3.396;2024-03-17T15:31:21;14.40;99.90
46758;DHT22;32509;47.750;-3.396;2024-03-17T15:33:50;14.40;99.90
46758;DHT22;32509;47.750;-3.396;2024-03-17T15:36:16;14.40;99.90
46758;DHT22;32509;47.750;-3.396;2024-03-17T15:38:42;14.30;99.90
46758;DHT22;32509;47.750;-3.396;2024-03-17T15:41:09;14.30;99.90
46758;DHT22;32509;47.750;-3.396;2024-03-17T15:43:39;14.30;99.90
46758;DHT22;32509;47.750;-3.396;2024-03-17T15:46:15;14.30;99.90
46758;DHT22;32509;47.750;-3.396;2024-03-17T15:48:41;14.30;99.90